Time;durP1;ratioP1;P1;durP2;ratioP2;P2;SDS_P1;SDS_P2;PMS_P1;PMS_P2;Temp;Humidity;BMP_temperature;BMP_pressure;BME280_temperature;BME280_humidity;BME280_pressure;Samples;Min_cycle;Max_cycle;Signal;HPM_P1;HPM_P2
2021/08/02 00:01:31;;;;;;;3.70;2.25;;;14.40;99.90;;;;;;6158122;23;20187;-75
2021/08/02 00:04:03;;;;;;;4.68;2.35;;;14.30;99.90;;;;;;6184973;23;20171;-75
2021/08/02 00:06:43;;;;;;;4.80;2.25;;;14.40;99.90;;;;;;6184700;23;20167;-75
2021/08/02 00:09:11;;;;;;;3.15;2.10;;;14.30;99.90;;;;;;6160083;23;20203;-75
2021/08/02 00:11:40;;;;;;;3.30;2.20;;;14.40;99.90;;;;;;6184546;23;20165;-72
2021/08/02 00:14:10;;;;;;;4.63;2.85;;;14.40;99.90;;;;;;6185108;23;20160;-75
2021/08/02 00:16:38;;;;;;;6.75;2.38;;;14.30;99.90;;;;;;6184991;23;20195;-75
2021/08/02 00:19:09;;;;;;;7.70;2.55;;;14.30;99.90;;;;;;6184913;23;20208;-75
2021/08/02 00:21:37;;;;;;;4.10;3.28;;;14.30;99.90;;;;;;6184283;23;20608;-75
2021/08/02 00:24:06;;;;;;;5.38;3.10;;;14.30;99.90;;;;;;6184466;23;20191;-74
2021/08/02 00:26:33;;;;;;;16.27;3.90;;;14.30;99.90;;;;;;6184863;23;20183;-75
2021/08/02 00:29:01;;;;;;;5.10;2.40;;;14.30;99.90;;;;;;6183832;23;20207;-75
2021/08/02 00:31:29;;;;;;;4.18;2.80;;;14.30;99.90;;;;;;6183880;23;20174;-75
2021/08/02 00:33:57;;;;;;;4.70;2.80;;;14.20;99.90;;;;;;6185013;23;20171;-75
2021/08/02 00:36:37;;;;;;;3.58;2.55;;;14.30;99.90;;;;;;6184644;23;20164;-75
2021/08/02 00:39:06;;;;;;;6.90;3.22;;;14.30;99.90;;;;;;6184192;23;20682;-75
2021/08/02 00:42:18;;;;;;;6.47;2.47;;;14.20;99.90;;;;;;6183866;23;20164;-75
2021/08/02 00:45:20;;;;;;;4.05;2.40;;;14.20;99.90;;;;;;6184688;23;20611;-75
2021/08/02 00:47:50;;;;;;;5.90;2.95;;;14.20;99.90;;;;;;6174634;23;20211;-75
2021/08/02 00:50:20;;;;;;;4.57;2.40;;;14.10;99.90;;;;;;6185259;23;20193;-75
2021/08/02 00:52:52;;;;;;;5.43;3.22;;;14.10;99.90;;;;;;6184155;23;20168;-72
2021/08/02 00:55:21;;;;;;;5.70;3.00;;;14.10;99.90;;;;;;6185235;23;20170;-75
2021/08/02 00:57:50;;;;;;;3.00;2.03;;;14.00;99.90;;;;;;6184774;23;20196;-72
2021/08/02 01:00:19;;;;;;;5.95;3.38;;;14.00;99.90;;;;;;6184815;23;20175;-73
2021/08/02 01:02:50;;;;;;;3.47;2.95;;;14.00;99.90;;;;;;6184497;23;20168;-75
2021/08/02 01:05:19;;;;;;;5.65;2.40;;;14.00;99.90;;;;;;6185013;23;20165;-75
2021/08/02 01:07:52;;;;;;;6.60;3.00;;;14.00;99.90;;;;;;6184240;23;20196;-76
2021/08/02 01:10:20;;;;;;;6.45;2.75;;;13.90;99.90;;;;;;6157513;23;20195;-75
2021/08/02 01:12:50;;;;;;;5.45;3.40;;;14.00;99.90;;;;;;6184013;23;20167;-74
2021/08/02 01:15:19;;;;;;;4.15;2.22;;;13.90;99.90;;;;;;6184594;23;20167;-73
2021/08/02 01:17:48;;;;;;;5.97;3.17;;;13.90;99.90;;;;;;6184348;23;20207;-73
2021/08/02 01:20:17;;;;;;;6.20;2.75;;;13.80;99.90;;;;;;6184478;23;20170;-73
2021/08/02 01:23:04;;;;;;;4.40;2.55;;;13.80;99.90;;;;;;6184030;23;20199;-73
2021/08/02 01:26:11;;;;;;;7.30;2.78;;;13.90;99.90;;;;;;6184442;23;20240;-73
2021/08/02 01:29:15;;;;;;;4.70;3.15;;;13.90;99.90;;;;;;6184247;23;20671;-73
2021/08/02 01:31:44;;;;;;;8.48;2.75;;;13.90;99.90;;;;;;6184751;23;20164;-73
2021/08/02 01:34:11;;;;;;;6.78;3.35;;;14.00;99.90;;;;;;6184424;23;20165;-74
2021/08/02 01:36:40;;;;;;;7.05;2.97;;;14.00;99.90;;;;;;6184423;23;20164;-74
2021/08/02 01:39:08;;;;;;;7.30;3.05;;;14.00;99.90;;;;;;6184495;23;20206;-74
2021/08/02 01:41:35;;;;;;;3.67;2.45;;;14.00;99.90;;;;;;6184651;23;20160;-74
2021/08/02 01:44:02;;;;;;;7.80;3.13;;;14.00;99.90;;;;;;6184040;23;20160;-74
2021/08/02 01:46:42;;;;;;;6.00;2.67;;;14.00;99.90;;;;;;6184571;23;20196;-75
2021/08/02 01:49:20;;;;;;;3.60;2.42;;;14.00;99.90;;;;;;6158187;23;20200;-74
2021/08/02 01:51:50;;;;;;;11.85;3.40;;;14.10;99.90;;;;;;6157677;23;20164;-74
2021/08/02 01:54:29;;;;;;;6.60;3.00;;;14.10;99.90;;;;;;6186054;23;20490;-74
2021/08/02 01:57:02;;;;;;;6.30;2.90;;;14.10;99.90;;;;;;6186049;23;20163;-75
2021/08/02 01:59:36;;;;;;;4.50;2.85;;;14.10;99.90;;;;;;6186180;23;20186;-75
2021/08/02 02:02:06;;;;;;;7.88;2.88;;;14.10;99.90;;;;;;6185212;23;20622;-74
2021/08/02 02:04:38;;;;;;;8.38;2.67;;;14.10;99.90;;;;;;6185713;23;20163;-74
2021/08/02 02:07:07;;;;;;;4.60;2.72;;;14.10;99.90;;;;;;6186090;23;20161;-74
2021/08/02 02:09:41;;;;;;;6.05;3.40;;;14.20;99.90;;;;;;6186372;23;20185;-74
2021/08/02 02:12:11;;;;;;;11.07;2.83;;;14.20;99.90;;;;;;6185421;23;20611;-74
2021/08/02 02:14:39;;;;;;;5.82;3.08;;;14.20;99.90;;;;;;6186156;23;20165;-74
2021/08/02 02:17:09;;;;;;;5.22;2.40;;;14.20;99.90;;;;;;6185380;23;20174;-75
2021/08/02 02:19:37;;;;;;;7.40;3.00;;;14.20;99.90;;;;;;6186474;23;20219;-74
2021/08/02 02:22:05;;;;;;;7.10;2.58;;;14.20;99.90;;;;;;6185332;23;20543;-75
2021/08/02 02:24:36;;;;;;;10.02;3.10;;;14.20;99.90;;;;;;6186306;23;20161;-74
2021/08/02 02:27:07;;;;;;;4.90;2.75;;;14.20;99.90;;;;;;6185233;23;20693;-74
2021/08/02 02:29:36;;;;;;;3.78;2.92;;;14.10;99.90;;;;;;6185382;23;20180;-75
2021/08/02 02:32:06;;;;;;;7.13;2.83;;;14.10;99.90;;;;;;6185440;23;20161;-74
2021/08/02 02:34:36;;;;;;;8.07;3.40;;;14.10;99.90;;;;;;6185734;23;20164;-74
2021/08/02 02:37:04;;;;;;;4.70;2.65;;;14.10;99.90;;;;;;6185634;23;20164;-75
2021/08/02 02:39:32;;;;;;;4.07;2.33;;;14.10;99.90;;;;;;6185886;23;20594;-75
2021/08/02 02:42:01;;;;;;;6.45;3.13;;;14.00;99.90;;;;;;6185306;23;20246;-74
2021/08/02 02:44:31;;;;;;;8.13;3.22;;;14.00;99.90;;;;;;6186049;23;20169;-74
2021/08/02 02:46:59;;;;;;;3.88;2.85;;;14.00;99.90;;;;;;6184084;23;20183;-75
2021/08/02 02:49:28;;;;;;;6.82;3.22;;;14.00;99.90;;;;;;6185918;23;20192;-74
2021/08/02 02:51:57;;;;;;;5.30;2.85;;;14.00;99.90;;;;;;6185441;23;20161;-73
2021/08/02 02:54:26;;;;;;;10.40;3.63;;;14.00;99.90;;;;;;6185702;23;20171;-74
2021/08/02 02:56:55;;;;;;;6.13;2.45;;;14.00;99.90;;;;;;6185640;23;20604;-74
2021/08/02 02:59:23;;;;;;;11.45;2.63;;;14.00;99.90;;;;;;6185728;23;20172;-74
2021/08/02 03:01:53;;;;;;;2.78;2.50;;;14.00;99.90;;;;;;6184718;23;20176;-74
2021/08/02 03:04:25;;;;;;;5.80;2.63;;;14.00;99.90;;;;;;6185224;23;20487;-74
2021/08/02 03:06:55;;;;;;;4.80;3.13;;;14.10;99.90;;;;;;6185549;23;20471;-74
2021/08/02 03:09:24;;;;;;;4.85;2.58;;;14.10;99.90;;;;;;6185832;23;20195;-74
2021/08/02 03:11:51;;;;;;;6.00;3.00;;;14.00;99.90;;;;;;6184890;23;20167;-74
2021/08/02 03:14:19;;;;;;;5.97;2.97;;;14.00;99.90;;;;;;6185254;23;20170;-74
2021/08/02 03:16:46;;;;;;;7.68;3.53;;;14.00;99.90;;;;;;6185422;23;20167;-74
2021/08/02 03:19:14;;;;;;;4.80;2.45;;;14.00;99.90;;;;;;6184859;23;20200;-74
2021/08/02 03:21:41;;;;;;;4.20;2.72;;;14.10;99.90;;;;;;6186019;23;20171;-74
2021/08/02 03:24:14;;;;;;;5.95;2.70;;;14.10;99.90;;;;;;6185393;23;20164;-74
2021/08/02 03:26:45;;;;;;;6.63;3.20;;;14.10;99.90;;;;;;6185461;23;20592;-73
2021/08/02 03:29:20;;;;;;;8.32;2.97;;;14.10;99.90;;;;;;6183574;23;20203;-73
2021/08/02 03:31:52;;;;;;;10.93;3.35;;;14.10;99.90;;;;;;6159261;23;20186;-74
2021/08/02 03:34:24;;;;;;;8.10;4.15;;;14.10;99.90;;;;;;6185452;23;20164;-73
2021/08/02 03:36:53;;;;;;;4.65;3.10;;;14.10;99.90;;;;;;6185204;23;20170;-74
2021/08/02 03:39:36;;;;;;;6.85;3.80;;;14.10;99.90;;;;;;6184698;23;20188;-73
2021/08/02 03:42:04;;;;;;;6.78;3.40;;;14.00;99.90;;;;;;6184239;23;20165;-73
2021/08/02 03:44:34;;;;;;;4.15;2.80;;;14.00;99.90;;;;;;6184578;23;20165;-74
2021/08/02 03:47:04;;;;;;;6.78;2.85;;;14.00;99.90;;;;;;6185170;23;20195;-74
2021/08/02 03:49:33;;;;;;;5.95;2.78;;;14.00;99.90;;;;;;6186366;23;20191;-74
2021/08/02 03:52:27;;;;;;;5.63;2.45;;;14.00;99.90;;;;;;6185300;23;20171;-74
2021/08/02 03:54:54;;;;;;;4.40;2.90;;;14.10;99.90;;;;;;6186343;23;20172;-74
2021/08/02 03:57:22;;;;;;;5.57;2.58;;;14.10;99.90;;;;;;6185774;23;20209;-74
2021/08/02 03:59:51;;;;;;;4.93;3.08;;;14.10;99.90;;;;;;6184433;23;20623;-74
2021/08/02 04:02:18;;;;;;;5.30;2.80;;;14.10;99.90;;;;;;6184820;23;20161;-75
2021/08/02 04:04:47;;;;;;;8.15;2.63;;;14.10;99.90;;;;;;6185775;23;20174;-74
2021/08/02 04:07:14;;;;;;;6.10;3.55;;;14.20;99.90;;;;;;6186159;23;20208;-73
2021/08/02 04:09:42;;;;;;;4.20;2.40;;;14.20;99.90;;;;;;6186306;23;20184;-74
2021/08/02 04:12:10;;;;;;;3.70;2.72;;;14.30;99.90;;;;;;6184887;23;20161;-73
2021/08/02 04:14:38;;;;;;;7.45;3.42;;;14.20;99.90;;;;;;6184622;23;20171;-74
2021/08/02 04:17:06;;;;;;;6.90;3.00;;;14.30;99.90;;;;;;6184194;23;20165;-74
2021/08/02 04:19:33;;;;;;;4.28;2.55;;;14.30;99.90;;;;;;6184309;23;20156;-74
2021/08/02 04:22:02;;;;;;;5.50;3.47;;;14.30;99.90;;;;;;6184340;23;20167;-73
2021/08/02 04:24:29;;;;;;;7.55;2.92;;;14.30;99.90;;;;;;6185047;23;20167;-73
2021/08/02 04:26:56;;;;;;;8.07;3.55;;;14.40;99.90;;;;;;6185156;23;20165;-73
2021/08/02 04:29:23;;;;;;;11.05;3.50;;;14.40;99.90;;;;;;6184746;23;20165;-73
2021/08/02 04:31:50;;;;;;;4.82;2.55;;;14.50;99.90;;;;;;6183963;23;20171;-74
2021/08/02 04:34:19;;;;;;;5.18;2.40;;;14.60;99.90;;;;;;6184740;23;20548;-76
2021/08/02 04:36:46;;;;;;;4.47;2.28;;;14.70;99.90;;;;;;6184120;23;20164;-76
2021/08/02 04:39:14;;;;;;;6.75;3.38;;;14.80;99.90;;;;;;6184063;23;20207;-77
2021/08/02 04:41:41;;;;;;;6.90;2.70;;;15.00;99.90;;;;;;6184155;23;20156;-77
2021/08/02 04:44:09;;;;;;;5.82;2.78;;;15.10;99.90;;;;;;6185215;23;20161;-72
2021/08/02 04:46:36;;;;;;;5.25;2.75;;;15.10;99.90;;;;;;6184497;23;20184;-74
2021/08/02 04:49:03;;;;;;;9.63;2.65;;;15.20;99.90;;;;;;6184181;23;20544;-74
2021/08/02 04:51:30;;;;;;;10.52;3.22;;;15.20;99.90;;;;;;6183427;23;20184;-74
2021/08/02 04:53:57;;;;;;;4.10;2.50;;;15.20;99.90;;;;;;6184091;23;20216;-77
2021/08/02 04:56:26;;;;;;;5.75;2.55;;;15.30;99.90;;;;;;6184155;23;20232;-75
2021/08/02 04:58:53;;;;;;;6.20;3.38;;;15.30;99.90;;;;;;6183945;23;20200;-75
2021/08/02 05:01:20;;;;;;;4.50;2.10;;;15.20;99.90;;;;;;6183751;23;20618;-74
2021/08/02 05:03:48;;;;;;;4.68;3.05;;;15.20;99.90;;;;;;6184794;23;20606;-75
2021/08/02 05:06:15;;;;;;;4.05;2.47;;;15.10;99.90;;;;;;6184753;23;20168;-75
2021/08/02 05:08:42;;;;;;;6.18;2.67;;;15.20;99.90;;;;;;6184468;23;20211;-75
2021/08/02 05:11:09;;;;;;;6.28;2.33;;;15.20;99.90;;;;;;6184373;23;20223;-76
2021/08/02 05:13:38;;;;;;;10.73;2.85;;;15.30;99.90;;;;;;6184105;23;20165;-75
2021/08/02 05:16:06;;;;;;;6.57;3.08;;;15.40;99.90;;;;;;6184785;23;20165;-76
2021/08/02 05:18:33;;;;;;;6.32;3.05;;;15.40;99.90;;;;;;6184642;23;20226;-77
2021/08/02 05:21:02;;;;;;;7.70;2.35;;;15.40;99.90;;;;;;6184537;23;20157;-78
2021/08/02 05:23:30;;;;;;;4.20;2.10;;;15.40;99.90;;;;;;6184390;23;20165;-76
2021/08/02 05:25:58;;;;;;;3.25;2.65;;;15.40;99.90;;;;;;6184828;23;20172;-77
2021/08/02 05:28:25;;;;;;;5.47;2.55;;;15.40;99.90;;;;;;6185448;23;20196;-75
2021/08/02 05:30:54;;;;;;;5.53;2.95;;;15.40;99.90;;;;;;6186078;23;20192;-76
2021/08/02 05:33:21;;;;;;;9.73;2.58;;;15.40;99.90;;;;;;6184436;23;20172;-74
2021/08/02 05:35:48;;;;;;;3.53;2.50;;;15.40;99.90;;;;;;6185789;23;20172;-75
2021/08/02 05:38:15;;;;;;;7.15;2.47;;;15.40;99.90;;;;;;6186415;23;20203;-76
2021/08/02 05:40:44;;;;;;;5.38;3.83;;;15.40;99.90;;;;;;6186750;23;20161;-74
2021/08/02 05:43:12;;;;;;;7.47;3.45;;;15.50;99.90;;;;;;6185045;23;20473;-74
2021/08/02 05:45:39;;;;;;;8.00;3.25;;;15.70;99.90;;;;;;6186013;23;20161;-76
2021/08/02 05:48:08;;;;;;;9.05;3.13;;;15.80;99.90;;;;;;6185682;23;20557;-72
2021/08/02 05:50:35;;;;;;;7.40;2.35;;;15.90;99.90;;;;;;6186238;23;20191;-73
2021/08/02 05:53:02;;;;;;;6.90;3.25;;;15.90;99.90;;;;;;6185341;23;20243;-70
2021/08/02 05:55:29;;;;;;;3.78;2.80;;;16.10;99.90;;;;;;6185976;23;20161;-75
2021/08/02 05:57:56;;;;;;;5.10;3.47;;;16.20;99.90;;;;;;6185457;23;20275;-71
2021/08/02 06:00:24;;;;;;;4.38;2.30;;;16.30;99.90;;;;;;6185402;23;20156;-71
2021/08/02 06:02:51;;;;;;;7.78;4.05;;;16.30;99.90;;;;;;6185202;23;20169;-70
2021/08/02 06:05:20;;;;;;;3.72;3.13;;;16.50;99.90;;;;;;6185159;23;20218;-71
2021/08/02 06:07:47;;;;;;;6.63;3.13;;;16.60;99.90;;;;;;6185408;23;20664;-71
2021/08/02 06:10:15;;;;;;;6.63;2.58;;;16.70;99.90;;;;;;6185317;23;20307;-71
2021/08/02 06:12:42;;;;;;;6.78;2.85;;;16.80;99.90;;;;;;6184681;23;20501;-70
2021/08/02 06:15:11;;;;;;;5.50;2.30;;;16.90;99.90;;;;;;6185739;23;20161;-71
2021/08/02 06:17:39;;;;;;;12.65;3.60;;;16.90;99.90;;;;;;6185861;23;20203;-73
2021/08/02 06:20:07;;;;;;;6.78;2.22;;;17.00;99.90;;;;;;6185840;23;20173;-70
2021/08/02 06:22:36;;;;;;;2.72;1.98;;;17.00;99.90;;;;;;6185280;23;20162;-70
2021/08/02 06:25:04;;;;;;;8.95;4.30;;;17.20;99.90;;;;;;6186511;23;20498;-71
2021/08/02 06:27:31;;;;;;;6.93;2.50;;;17.40;99.90;;;;;;6184864;23;20217;-71
2021/08/02 06:29:59;;;;;;;6.22;3.53;;;17.50;99.90;;;;;;6185559;23;20251;-70
2021/08/02 06:32:28;;;;;;;5.73;2.33;;;17.50;99.90;;;;;;6185246;23;20179;-70
2021/08/02 06:34:56;;;;;;;9.20;3.53;;;17.50;99.90;;;;;;6186054;23;20391;-71
2021/08/02 06:37:23;;;;;;;7.57;2.40;;;17.50;99.90;;;;;;6186177;23;20221;-73
2021/08/02 06:39:52;;;;;;;4.75;2.45;;;17.60;99.90;;;;;;6185114;23;20867;-73
2021/08/02 06:42:20;;;;;;;3.90;2.57;;;17.60;99.90;;;;;;6185182;23;20159;-73
2021/08/02 06:44:47;;;;;;;6.80;2.28;;;17.80;99.90;;;;;;6186137;23;20882;-74
2021/08/02 06:47:15;;;;;;;5.47;3.23;;;18.00;99.90;;;;;;6185800;23;20215;-75
2021/08/02 06:49:42;;;;;;;8.03;6.20;;;18.20;99.90;;;;;;6186573;23;20400;-74
2021/08/02 06:52:09;;;;;;;6.07;3.20;;;18.50;99.90;;;;;;6184810;23;20944;-73
2021/08/02 06:54:36;;;;;;;10.00;2.23;;;18.80;99.90;;;;;;6186593;23;20403;-74
2021/08/02 06:57:05;;;;;;;8.40;4.33;;;19.00;99.90;;;;;;6185247;23;20392;-74
2021/08/02 06:59:32;;;;;;;5.57;2.00;;;19.20;99.90;;;;;;6185628;23;20400;-73
2021/08/02 07:02:00;;;;;;;3.63;2.03;;;19.60;99.90;;;;;;6185360;23;20390;-73
2021/08/02 07:04:27;;;;;;;5.37;1.83;;;19.70;99.90;;;;;;6186435;23;20670;-74
2021/08/02 07:06:54;;;;;;;3.73;1.80;;;19.80;99.90;;;;;;6185683;23;20393;-74
2021/08/02 07:09:21;;;;;;;5.87;2.07;;;19.90;99.90;;;;;;6184420;23;20400;-76
2021/08/02 07:11:48;;;;;;;2.70;1.80;;;20.00;99.90;;;;;;6185051;23;20427;-76
2021/08/02 07:14:17;;;;;;;6.57;2.20;;;20.10;99.90;;;;;;6185475;23;20399;-74
2021/08/02 07:16:45;;;;;;;3.97;2.37;;;20.40;99.90;;;;;;6185376;23;20498;-73
2021/08/02 07:19:12;;;;;;;5.40;1.80;;;21.00;99.90;;;;;;6186071;23;20430;-74
2021/08/02 07:21:39;;;;;;;5.83;1.53;;;21.40;99.90;;;;;;6185215;23;20423;-74
2021/08/02 07:24:06;;;;;;;5.27;1.93;;;21.60;99.90;;;;;;6185816;23;20407;-73
2021/08/02 07:26:34;;;;;;;3.50;1.27;;;21.90;99.90;;;;;;6185549;23;20399;-74
2021/08/02 07:29:02;;;;;;;2.53;1.53;;;22.30;99.70;;;;;;6185649;23;20431;-73
2021/08/02 07:31:31;;;;;;;5.20;3.40;;;22.10;98.80;;;;;;6185383;23;20514;-72
2021/08/02 07:33:58;;;;;;;5.53;3.97;;;22.20;99.50;;;;;;6185690;23;20397;-74
2021/08/02 07:36:26;;;;;;;4.00;1.73;;;22.00;99.40;;;;;;6185189;23;20399;-72
2021/08/02 07:38:53;;;;;;;4.83;2.30;;;21.90;99.20;;;;;;6185262;23;20578;-75
2021/08/02 07:41:20;;;;;;;3.47;1.50;;;21.30;99.30;;;;;;6184713;23;20414;-73
2021/08/02 07:43:47;;;;;;;4.93;1.90;;;21.10;99.80;;;;;;6185256;23;20392;-75
2021/08/02 07:46:14;;;;;;;4.80;2.27;;;20.80;99.90;;;;;;6185082;23;20421;-75
2021/08/02 07:48:43;;;;;;;4.37;1.83;;;20.80;99.90;;;;;;6184998;23;20436;-73
2021/08/02 07:51:10;;;;;;;5.73;3.20;;;20.50;99.90;;;;;;6184422;23;20428;-74
2021/08/02 07:53:37;;;;;;;3.60;1.80;;;21.00;99.90;;;;;;6184892;23;20407;-73
2021/08/02 07:56:06;;;;;;;2.93;1.57;;;21.50;99.90;;;;;;6185115;23;20394;-74
2021/08/02 07:58:33;;;;;;;3.10;1.40;;;21.80;99.90;;;;;;6185258;23;20485;-74
2021/08/02 08:01:00;;;;;;;5.50;2.07;;;22.00;99.90;;;;;;6185965;23;20736;-73
2021/08/02 08:03:27;;;;;;;3.40;1.50;;;22.40;99.10;;;;;;6185102;23;20399;-75
2021/08/02 08:05:55;;;;;;;3.73;1.40;;;22.20;97.80;;;;;;6185336;23;20392;-77
2021/08/02 08:08:23;;;;;;;5.00;1.57;;;21.90;98.60;;;;;;6184862;23;20447;-76
2021/08/02 08:10:50;;;;;;;3.27;1.80;;;22.00;99.50;;;;;;6185880;23;20466;-72
2021/08/02 08:13:18;;;;;;;10.23;2.57;;;21.80;99.10;;;;;;6184537;23;20720;-76
2021/08/02 08:15:45;;;;;;;6.13;2.20;;;22.00;99.10;;;;;;6185352;23;20396;-73
2021/08/02 08:18:12;;;;;;;4.03;1.60;;;22.00;99.00;;;;;;6185154;23;20442;-75
2021/08/02 08:20:39;;;;;;;5.40;1.97;;;22.50;98.40;;;;;;6184623;23;20395;-74
2021/08/02 08:23:08;;;;;;;7.10;2.33;;;22.70;97.90;;;;;;6184308;23;20396;-72
2021/08/02 08:25:35;;;;;;;2.73;1.57;;;22.60;97.10;;;;;;6185338;23;20839;-74
2021/08/02 08:28:02;;;;;;;2.60;1.47;;;22.70;97.00;;;;;;6184247;23;20934;-73
2021/08/02 08:30:30;;;;;;;4.80;1.97;;;22.20;97.00;;;;;;6185129;23;20415;-73
2021/08/02 08:32:57;;;;;;;4.30;1.67;;;22.10;97.40;;;;;;6184271;23;20388;-74
2021/08/02 08:35:24;;;;;;;6.00;1.67;;;21.80;98.30;;;;;;6184069;23;20728;-74
2021/08/02 08:37:52;;;;;;;6.43;2.43;;;22.10;98.90;;;;;;6184412;23;20427;-74
2021/08/02 08:40:22;;;;;;;7.03;2.07;;;22.60;97.60;;;;;;6184713;23;20683;-71
2021/08/02 08:42:50;;;;;;;6.67;2.03;;;22.80;96.60;;;;;;6184512;23;20470;-74
2021/08/02 08:45:17;;;;;;;2.63;1.10;;;22.90;95.80;;;;;;6184740;23;20531;-71
2021/08/02 08:47:45;;;;;;;5.10;2.60;;;22.80;95.80;;;;;;6184376;23;20436;-72
2021/08/02 08:50:13;;;;;;;3.37;1.50;;;23.20;96.00;;;;;;6184167;23;20396;-71
2021/08/02 08:52:41;;;;;;;7.13;1.57;;;23.90;94.30;;;;;;6184211;23;20428;-74
2021/08/02 08:55:09;;;;;;;4.83;1.53;;;23.50;93.00;;;;;;6184464;23;20396;-71
2021/08/02 08:57:38;;;;;;;6.30;3.00;;;24.20;92.90;;;;;;6184841;23;20432;-74
2021/08/02 09:00:22;;;;;;;5.77;2.40;;;24.60;92.50;;;;;;6185077;23;20510;-76
2021/08/02 09:02:51;;;;;;;6.07;1.33;;;25.50;91.10;;;;;;6185240;23;20387;-73
2021/08/02 09:05:21;;;;;;;2.70;1.30;;;25.80;90.60;;;;;;6186861;23;20400;-74
2021/08/02 09:07:48;;;;;;;2.30;1.20;;;26.20;85.90;;;;;;6186521;23;20433;-73
2021/08/02 09:10:18;;;;;;;4.43;1.40;;;27.00;85.40;;;;;;6186863;23;20865;-73
2021/08/02 09:12:54;;;;;;;3.27;1.77;;;27.50;82.90;;;;;;6185704;23;20428;-71
2021/08/02 09:15:32;;;;;;;4.93;1.60;;;27.70;81.70;;;;;;6186080;23;20403;-75
2021/08/02 09:17:59;;;;;;;3.20;1.80;;;27.60;81.20;;;;;;6185960;23;20435;-74
2021/08/02 09:20:27;;;;;;;5.87;1.60;;;27.40;82.50;;;;;;6186554;23;20398;-72
2021/08/02 09:23:04;;;;;;;6.13;1.70;;;27.90;81.50;;;;;;6185205;23;20491;-73
2021/08/02 09:25:31;;;;;;;4.13;1.30;;;28.00;77.70;;;;;;6160247;23;20406;-74
2021/08/02 09:28:10;;;;;;;3.23;1.23;;;28.00;76.60;;;;;;6185985;23;20466;-72
2021/08/02 09:30:37;;;;;;;5.10;1.70;;;27.30;78.30;;;;;;6186846;23;20812;-74
2021/08/02 09:33:06;;;;;;;4.77;1.40;;;27.00;79.40;;;;;;6185030;23;20427;-74
2021/08/02 09:35:37;;;;;;;5.40;2.20;;;26.20;81.60;;;;;;6186155;23;20404;-74
2021/08/02 09:38:07;;;;;;;5.40;1.60;;;25.50;84.00;;;;;;6186327;23;20434;-71
2021/08/02 09:40:40;;;;;;;6.40;1.30;;;24.90;87.50;;;;;;6187009;23;20718;-73
2021/08/02 09:43:12;;;;;;;5.00;1.30;;;24.20;88.00;;;;;;6185615;23;20470;-72
2021/08/02 09:45:47;;;;;;;3.20;1.77;;;23.40;88.80;;;;;;6186557;23;20395;-72
2021/08/02 09:48:15;;;;;;;4.83;1.40;;;22.90;90.90;;;;;;6185462;23;20428;-71
2021/08/02 09:50:44;;;;;;;7.53;4.53;;;22.30;92.00;;;;;;6185985;23;20518;-72
2021/08/02 09:53:16;;;;;;;3.00;1.90;;;21.80;93.20;;;;;;6185840;23;20758;-74
2021/08/02 09:55:44;;;;;;;5.53;1.60;;;21.30;95.30;;;;;;6186367;23;20477;-72
2021/08/02 09:58:18;;;;;;;4.20;1.67;;;20.90;98.60;;;;;;6185368;23;20440;-72
2021/08/02 10:00:45;;;;;;;2.60;1.90;;;20.60;99.70;;;;;;6186336;23;20395;-73
2021/08/02 10:03:14;;;;;;;5.03;1.80;;;20.30;99.90;;;;;;6185439;23;20752;-72
2021/08/02 10:05:42;;;;;;;2.67;1.60;;;19.90;99.90;;;;;;6186349;23;20399;-73
2021/08/02 10:08:10;;;;;;;5.13;1.67;;;19.50;99.90;;;;;;6185961;23;20431;-72
2021/08/02 10:10:39;;;;;;;2.33;1.30;;;18.80;99.90;;;;;;6186248;23;20391;-71
2021/08/02 10:13:06;;;;;;;2.23;1.60;;;18.40;99.90;;;;;;6185668;23;20816;-73
2021/08/02 10:15:36;;;;;;;2.57;1.50;;;18.30;99.90;;;;;;6186431;23;20403;-72
2021/08/02 10:18:05;;;;;;;4.97;1.60;;;18.30;99.90;;;;;;6185644;23;20432;-72
2021/08/02 10:20:34;;;;;;;4.30;1.80;;;18.50;99.90;;;;;;6186293;23;20403;-73
2021/08/02 10:23:04;;;;;;;1.50;0.93;;;18.60;99.90;;;;;;6184927;23;20462;-72
2021/08/02 10:25:36;;;;;;;2.40;1.07;;;18.80;99.90;;;;;;6185602;23;20488;-74
2021/08/02 10:28:15;;;;;;;2.93;1.30;;;19.00;99.90;;;;;;6186373;23;20445;-72
2021/08/02 10:30:47;;;;;;;4.33;1.30;;;19.20;99.90;;;;;;6186056;23;20442;-74
2021/08/02 10:33:14;;;;;;;5.47;1.93;;;19.30;99.90;;;;;;6185596;23;20535;-72
2021/08/02 10:35:43;;;;;;;1.93;1.20;;;19.50;99.90;;;;;;6185943;23;20400;-73
2021/08/02 10:38:13;;;;;;;9.33;2.00;;;20.30;99.90;;;;;;6185987;23;20597;-72
2021/08/02 10:40:49;;;;;;;4.17;1.47;;;21.20;98.50;;;;;;6186071;23;20406;-74
2021/08/02 10:43:28;;;;;;;6.87;2.50;;;22.20;95.90;;;;;;6185037;23;20396;-76
2021/08/02 10:45:59;;;;;;;2.13;1.40;;;22.90;94.90;;;;;;6186083;23;20859;-72
2021/08/02 10:48:29;;;;;;;2.23;1.30;;;23.50;94.30;;;;;;6186567;23;20522;-74
2021/08/02 10:50:57;;;;;;;4.73;1.73;;;22.90;93.70;;;;;;6186125;23;20392;-73
2021/08/02 10:53:24;;;;;;;6.07;1.90;;;22.10;95.30;;;;;;6185259;23;20432;-72
2021/08/02 10:55:53;;;;;;;4.07;1.97;;;21.80;98.40;;;;;;6186222;23;20877;-73
2021/08/02 10:58:28;;;;;;;4.20;1.80;;;21.30;98.50;;;;;;6186118;23;20498;-72
2021/08/02 11:00:58;;;;;;;5.47;1.30;;;20.80;99.30;;;;;;6185631;23;20395;-73
2021/08/02 11:03:36;;;;;;;2.10;1.50;;;20.60;98.80;;;;;;6185342;23;20958;-74
2021/08/02 11:06:08;;;;;;;2.90;1.10;;;20.70;97.90;;;;;;6185632;23;20402;-72
2021/08/02 11:08:43;;;;;;;6.80;0.90;;;21.10;96.10;;;;;;6185485;23;20941;-73
2021/08/02 11:11:11;;;;;;;2.60;1.43;;;21.40;94.00;;;;;;6185303;23;20838;-72
2021/08/02 11:13:38;;;;;;;1.73;1.00;;;21.70;92.90;;;;;;6185014;23;20431;-74
2021/08/02 11:16:10;;;;;;;3.37;1.30;;;22.00;92.70;;;;;;6185223;23;20396;-73
2021/08/02 11:18:37;;;;;;;2.03;1.23;;;22.40;92.50;;;;;;6184584;23;20480;-73
2021/08/02 11:21:04;;;;;;;2.03;1.10;;;22.50;92.10;;;;;;6184915;23;20902;-73
2021/08/02 11:23:34;;;;;;;3.57;1.33;;;22.50;91.90;;;;;;6184887;23;20407;-72
2021/08/02 11:26:09;;;;;;;3.87;1.17;;;22.50;92.60;;;;;;6184067;23;21469;-74
2021/08/02 11:28:44;;;;;;;2.20;1.27;;;22.60;92.90;;;;;;6185237;23;20424;-70
2021/08/02 11:31:14;;;;;;;1.47;1.10;;;22.50;92.50;;;;;;6185092;23;20871;-74
2021/08/02 11:33:42;;;;;;;2.00;1.00;;;22.80;92.60;;;;;;6184623;23;20467;-74
2021/08/02 11:36:16;;;;;;;3.30;1.10;;;23.30;92.30;;;;;;6185486;23;20396;-76
2021/08/02 11:38:43;;;;;;;9.10;4.37;;;23.20;91.00;;;;;;6184751;23;20767;-74
2021/08/02 11:41:11;;;;;;;1.50;1.07;;;23.50;91.50;;;;;;6184789;23;20388;-72
2021/08/02 11:43:44;;;;;;;1.77;1.00;;;23.70;91.10;;;;;;6184193;23;20396;-71
2021/08/02 11:46:14;;;;;;;2.57;1.00;;;24.10;90.70;;;;;;6185248;23;20863;-72
2021/08/02 11:48:43;;;;;;;2.67;1.30;;;24.00;90.00;;;;;;6183806;23;20531;-73
2021/08/02 11:51:14;;;;;;;5.70;1.63;;;23.40;90.80;;;;;;6185570;23;20743;-73
2021/08/02 11:53:41;;;;;;;2.70;1.50;;;23.20;91.30;;;;;;6183400;23;20428;-72
2021/08/02 11:56:09;;;;;;;2.67;1.37;;;23.20;91.10;;;;;;6184261;23;20392;-75
2021/08/02 11:58:41;;;;;;;1.93;1.33;;;23.20;91.00;;;;;;6184893;23;20436;-75
2021/08/02 12:01:08;;;;;;;5.03;1.47;;;23.30;90.70;;;;;;6185834;23;20704;-74
2021/08/02 12:03:37;;;;;;;3.17;1.13;;;23.50;90.90;;;;;;6184714;23;20392;-74
2021/08/02 12:06:06;;;;;;;2.87;1.20;;;23.70;91.40;;;;;;6185853;23;20478;-74
2021/08/02 12:08:34;;;;;;;4.53;1.27;;;23.90;90.70;;;;;;6184490;23;20478;-72
2021/08/02 12:11:02;;;;;;;12.53;1.97;;;23.80;90.80;;;;;;6185681;23;20703;-72
2021/08/02 12:13:41;;;;;;;3.23;1.43;;;23.50;91.10;;;;;;6184456;23;20437;-73
2021/08/02 12:16:10;;;;;;;4.10;1.60;;;23.30;91.50;;;;;;6185419;23;20395;-75
2021/08/02 12:18:40;;;;;;;2.93;1.50;;;22.90;92.00;;;;;;6185092;23;20443;-73
2021/08/02 12:21:13;;;;;;;2.43;1.90;;;22.20;93.20;;;;;;6185058;23;20399;-72
2021/08/02 12:23:41;;;;;;;4.00;1.97;;;22.00;95.10;;;;;;6184146;23;20386;-73
2021/08/02 12:26:20;;;;;;;7.07;2.57;;;21.60;97.00;;;;;;6184804;23;20392;-71
2021/08/02 12:28:49;;;;;;;9.63;3.30;;;21.20;98.80;;;;;;6184233;23;21023;-72
2021/08/02 12:31:18;;;;;;;5.93;2.47;;;20.90;99.90;;;;;;6184883;23;20400;-73
2021/08/02 12:33:52;;;;;;;4.60;2.23;;;20.70;99.90;;;;;;6184390;23;20427;-75
2021/08/02 12:36:21;;;;;;;3.30;2.37;;;20.50;99.90;;;;;;6185602;23;20475;-74
2021/08/02 12:38:50;;;;;;;5.50;2.30;;;20.20;99.90;;;;;;6184923;23;20427;-72
2021/08/02 12:41:18;;;;;;;10.33;2.50;;;20.10;99.90;;;;;;6184597;23;20401;-74
2021/08/02 12:43:45;;;;;;;5.97;1.90;;;20.00;99.90;;;;;;6183446;23;20865;-72
2021/08/02 12:46:13;;;;;;;2.93;1.63;;;19.90;99.90;;;;;;6185036;23;20792;-74
2021/08/02 12:48:40;;;;;;;9.60;2.10;;;19.80;99.90;;;;;;6184474;23;20433;-75
2021/08/02 12:51:09;;;;;;;5.20;3.70;;;19.90;99.90;;;;;;6184213;23;20402;-73
2021/08/02 12:53:36;;;;;;;3.70;2.43;;;20.00;99.90;;;;;;6183457;23;20447;-74
2021/08/02 12:56:03;;;;;;;7.40;3.60;;;20.10;99.90;;;;;;6185058;23;20422;-72
2021/08/02 12:58:31;;;;;;;7.83;2.47;;;20.30;99.90;;;;;;6184567;23;20420;-73